createdAt,value
2018-12-26T00:01:52.742Z,94.31
2018-12-26T00:04:24.345Z,94.45
2018-12-26T00:06:55.739Z,94.53
2018-12-26T00:09:26.886Z,94.49
2018-12-26T00:11:57.988Z,94.65
2018-12-26T00:14:29.178Z,94.76
2018-12-26T00:17:00.640Z,94.70
2018-12-26T00:19:32.166Z,94.76
2018-12-26T00:22:03.211Z,94.71
2018-12-26T00:24:34.603Z,94.74
2018-12-26T00:27:06.291Z,94.72
2018-12-26T00:29:37.635Z,94.79
2018-12-26T00:32:08.764Z,94.78
2018-12-26T00:34:39.929Z,94.77
2018-12-26T00:37:10.932Z,94.52
2018-12-26T00:39:42.157Z,94.81
2018-12-26T00:42:13.413Z,94.76
2018-12-26T00:44:45.917Z,94.70
2018-12-26T00:47:17.203Z,94.69
2018-12-26T00:49:48.540Z,94.72
2018-12-26T00:52:19.898Z,94.73
2018-12-26T00:54:51.242Z,94.96
2018-12-26T00:57:22.902Z,94.93
2018-12-26T00:59:55.036Z,95.15
2018-12-26T01:02:26.512Z,95.21
2018-12-26T01:04:57.961Z,95.25
2018-12-26T01:07:29.082Z,95.17
2018-12-26T01:10:00.657Z,95.27
2018-12-26T01:12:33.160Z,95.20
2018-12-26T01:15:05.126Z,95.24
2018-12-26T01:17:36.416Z,95.23
2018-12-26T01:20:08.239Z,95.14
2018-12-26T01:22:39.298Z,95.19
2018-12-26T01:25:10.573Z,95.20
2018-12-26T01:27:41.783Z,94.99
2018-12-26T01:30:14.742Z,94.77
2018-12-26T01:32:45.738Z,94.65
2018-12-26T01:35:17.144Z,94.64
2018-12-26T01:37:48.459Z,94.64
2018-12-26T01:40:19.541Z,94.68
2018-12-26T01:42:50.716Z,94.71
2018-12-26T01:45:21.962Z,94.70
2018-12-26T01:47:53.929Z,94.73
2018-12-26T01:50:25.420Z,94.71
2018-12-26T01:52:56.851Z,94.84
2018-12-26T01:55:30.614Z,95.06
2018-12-26T01:58:04.094Z,95.06
2018-12-26T02:00:35.468Z,94.84
2018-12-26T02:03:06.600Z,94.82
2018-12-26T02:05:39.365Z,94.55
2018-12-26T02:08:10.477Z,94.39
2018-12-26T02:10:42.035Z,94.12
2018-12-26T02:13:13.378Z,93.99
2018-12-26T02:15:44.632Z,93.97
2018-12-26T02:18:15.780Z,93.84
2018-12-26T02:20:47.625Z,93.70
2018-12-26T02:23:18.945Z,93.46
2018-12-26T02:26:02.791Z,93.53
2018-12-26T02:28:34.003Z,93.56
2018-12-26T02:31:06.923Z,93.56
2018-12-26T02:33:38.022Z,93.11
2018-12-26T02:36:09.336Z,93.18
2018-12-26T02:38:40.371Z,93.24
2018-12-26T02:41:11.693Z,93.51
2018-12-26T02:43:43.617Z,93.70
2018-12-26T02:46:17.445Z,93.57
2018-12-26T02:48:48.627Z,93.64
2018-12-26T02:51:21.137Z,93.53
2018-12-26T02:53:52.432Z,93.38
2018-12-26T02:56:23.924Z,93.35
2018-12-26T02:58:55.014Z,93.78
2018-12-26T03:01:26.310Z,93.86
2018-12-26T03:03:57.359Z,93.76
2018-12-26T03:06:28.752Z,94.25
2018-12-26T03:09:00.230Z,94.35
2018-12-26T03:11:31.509Z,94.46
2018-12-26T03:14:03.358Z,94.50
2018-12-26T03:16:34.570Z,94.92
2018-12-26T03:19:06.023Z,94.95
2018-12-26T03:21:37.366Z,94.98
2018-12-26T03:24:08.545Z,94.92
2018-12-26T03:26:39.817Z,94.96
2018-12-26T03:29:10.918Z,94.91
2018-12-26T03:31:42.737Z,94.65
2018-12-26T03:34:13.853Z,94.64
2018-12-26T03:36:46.495Z,94.10
2018-12-26T03:39:17.692Z,94.20
2018-12-26T03:41:48.818Z,94.07
2018-12-26T03:44:21.048Z,94.30
2018-12-26T03:46:52.389Z,94.11
2018-12-26T03:49:23.676Z,94.06
2018-12-26T03:51:55.148Z,93.89
2018-12-26T03:54:26.199Z,93.71
2018-12-26T03:57:05.596Z,93.62
2018-12-26T03:59:30.644Z,93.47
2018-12-26T04:02:02.243Z,93.23
2018-12-26T04:04:33.442Z,92.84
2018-12-26T04:07:04.542Z,93.11
2018-12-26T04:09:35.751Z,93.40
2018-12-26T04:12:06.867Z,93.46
2018-12-26T04:14:38.281Z,93.28
2018-12-26T04:17:09.845Z,93.14
2018-12-26T04:19:41.265Z,93.19
2018-12-26T04:22:12.818Z,93.00
2018-12-26T04:24:46.962Z,92.74
2018-12-26T04:27:18.176Z,92.38
2018-12-26T04:29:49.417Z,92.09
2018-12-26T04:32:20.851Z,92.09
2018-12-26T04:34:52.122Z,92.03
2018-12-26T04:37:24.356Z,91.70
2018-12-26T04:39:55.489Z,92.02
2018-12-26T04:42:26.997Z,91.55
2018-12-26T04:44:58.174Z,91.36
2018-12-26T04:47:29.338Z,91.56
2018-12-26T04:50:00.414Z,91.22
2018-12-26T04:52:32.808Z,91.96
2018-12-26T04:55:03.825Z,91.60
2018-12-26T04:57:35.369Z,91.73
2018-12-26T05:00:09.073Z,91.69
2018-12-26T05:02:40.933Z,91.56
2018-12-26T05:05:12.402Z,91.78
2018-12-26T05:07:43.765Z,91.06
2018-12-26T05:10:15.382Z,91.09
2018-12-26T05:12:46.540Z,91.05
2018-12-26T05:15:17.773Z,91.34
2018-12-26T05:17:49.029Z,91.10
2018-12-26T05:20:20.172Z,91.36
2018-12-26T05:22:51.469Z,91.66
2018-12-26T05:25:22.550Z,91.32
2018-12-26T05:27:53.593Z,91.39
2018-12-26T05:30:26.173Z,91.73
2018-12-26T05:32:57.979Z,91.81
2018-12-26T05:35:29.065Z,92.25
2018-12-26T05:38:00.651Z,92.27
2018-12-26T05:40:32.749Z,92.52
2018-12-26T05:43:04.198Z,92.60
2018-12-26T05:45:35.552Z,92.57
2018-12-26T05:48:06.891Z,92.58
2018-12-26T05:50:38.068Z,92.67
2018-12-26T05:53:09.681Z,92.71
2018-12-26T05:55:40.854Z,92.72
2018-12-26T05:58:12.215Z,92.66
2018-12-26T06:00:43.667Z,92.55
2018-12-26T06:03:14.914Z,92.21
2018-12-26T06:05:46.560Z,92.27
2018-12-26T06:08:17.902Z,92.50
2018-12-26T06:10:50.338Z,92.42
2018-12-26T06:13:21.520Z,92.59
2018-12-26T06:15:52.581Z,92.65
2018-12-26T06:18:23.910Z,92.67
2018-12-26T06:20:55.097Z,92.79
2018-12-26T06:23:26.278Z,92.95
2018-12-26T06:25:57.576Z,92.75
2018-12-26T06:28:29.052Z,92.69
2018-12-26T06:31:00.846Z,92.62
2018-12-26T06:33:32.084Z,92.72
2018-12-26T06:36:03.347Z,92.89
2018-12-26T06:38:34.579Z,93.04
2018-12-26T06:41:06.968Z,92.94
2018-12-26T06:43:38.198Z,92.88
2018-12-26T06:46:09.300Z,92.89
2018-12-26T06:48:40.581Z,92.67
2018-12-26T06:51:11.903Z,92.71
2018-12-26T06:53:44.209Z,92.77
2018-12-26T06:56:15.304Z,93.01
2018-12-26T06:58:46.657Z,92.65
2018-12-26T07:01:17.730Z,92.66
2018-12-26T07:03:49.417Z,92.80
2018-12-26T07:06:21.893Z,92.94
2018-12-26T07:08:53.122Z,92.81
2018-12-26T07:11:24.220Z,92.88
2018-12-26T07:13:55.581Z,93.09
2018-12-26T07:16:26.634Z,92.75
2018-12-26T07:18:57.767Z,93.11
2018-12-26T07:21:29.336Z,93.14
2018-12-26T07:24:00.509Z,93.26
2018-12-26T07:26:31.616Z,93.35
2018-12-26T07:29:02.773Z,93.38
2018-12-26T07:31:34.679Z,93.44
2018-12-26T07:34:05.760Z,93.53
2018-12-26T07:36:37.212Z,93.57
2018-12-26T07:39:08.856Z,93.69
2018-12-26T07:41:40.167Z,93.82
2018-12-26T07:44:11.653Z,93.83
2018-12-26T07:46:42.992Z,93.88
2018-12-26T07:49:14.157Z,93.89
2018-12-26T07:51:45.717Z,93.74
2018-12-26T07:54:16.753Z,94.02
2018-12-26T07:56:47.967Z,93.95
2018-12-26T07:59:19.712Z,94.03
2018-12-26T08:01:51.067Z,94.04
2018-12-26T08:04:22.152Z,94.02
2018-12-26T08:06:53.259Z,93.93
2018-12-26T08:09:24.787Z,93.87
2018-12-26T08:11:56.111Z,93.95
2018-12-26T08:14:27.611Z,93.91
2018-12-26T08:16:58.774Z,93.71
2018-12-26T08:19:30.010Z,93.54
2018-12-26T08:22:01.156Z,93.65
2018-12-26T08:24:32.195Z,93.47
2018-12-26T08:27:04.312Z,93.10
2018-12-26T08:29:36.467Z,93.24
2018-12-26T08:32:07.744Z,93.13
2018-12-26T08:34:38.913Z,92.92
2018-12-26T08:37:10.060Z,92.84
2018-12-26T08:39:41.238Z,92.83
2018-12-26T08:42:12.352Z,92.70
2018-12-26T08:44:43.820Z,92.57
2018-12-26T08:47:14.973Z,92.45
2018-12-26T08:49:46.108Z,92.76
2018-12-26T08:52:17.311Z,92.89
2018-12-26T08:54:49.473Z,93.01
2018-12-26T08:57:22.294Z,92.87
2018-12-26T08:59:53.697Z,93.09
2018-12-26T09:02:25.371Z,93.39
2018-12-26T09:04:57.548Z,93.22
2018-12-26T09:07:28.761Z,93.36
2018-12-26T09:10:00.270Z,93.14
2018-12-26T09:12:31.954Z,93.33
2018-12-26T09:15:03.355Z,93.33
2018-12-26T09:17:35.712Z,93.09
2018-12-26T09:20:06.900Z,93.01
2018-12-26T09:22:38.127Z,92.91
2018-12-26T09:25:09.573Z,92.91
2018-12-26T09:27:40.980Z,92.90
2018-12-26T09:30:12.130Z,92.80
2018-12-26T09:32:43.332Z,93.00
2018-12-26T09:35:14.574Z,92.92
2018-12-26T09:37:45.759Z,93.13
2018-12-26T09:40:17.131Z,92.74
2018-12-26T09:42:48.487Z,93.02
2018-12-26T09:45:19.774Z,92.98
2018-12-26T09:47:50.936Z,92.71
2018-12-26T09:50:22.448Z,92.79
2018-12-26T09:52:53.749Z,92.69
2018-12-26T09:55:25.247Z,92.72
2018-12-26T09:57:56.366Z,92.68
2018-12-26T10:00:27.739Z,92.65
2018-12-26T10:03:00.271Z,92.56
2018-12-26T10:05:31.436Z,92.77
2018-12-26T10:08:03.523Z,92.62
2018-12-26T10:10:35.118Z,92.84
2018-12-26T10:13:06.305Z,92.77
2018-12-26T10:15:37.905Z,92.78
2018-12-26T10:18:11.599Z,93.01
2018-12-26T10:20:43.044Z,92.49
2018-12-26T10:23:14.598Z,92.65
2018-12-26T10:25:46.084Z,92.81
2018-12-26T10:28:17.198Z,92.80
2018-12-26T10:30:48.250Z,92.73
2018-12-26T10:33:19.614Z,92.24
2018-12-26T10:35:51.029Z,92.26
2018-12-26T10:38:22.141Z,92.05
2018-12-26T10:40:53.301Z,92.09
2018-12-26T10:43:24.528Z,92.64
2018-12-26T10:45:57.137Z,92.65
2018-12-26T10:48:28.401Z,92.52
2018-12-26T10:50:59.702Z,92.66
2018-12-26T10:53:30.897Z,92.55
2018-12-26T10:56:02.406Z,92.32
2018-12-26T10:58:34.415Z,92.43
2018-12-26T11:01:06.421Z,92.52
2018-12-26T11:03:37.959Z,92.34
2018-12-26T11:06:09.528Z,92.63
2018-12-26T11:08:41.088Z,92.34
2018-12-26T11:11:12.109Z,92.50
2018-12-26T11:13:43.495Z,92.08
2018-12-26T11:16:15.463Z,92.07
2018-12-26T11:18:47.133Z,92.19
2018-12-26T11:21:18.493Z,91.92
2018-12-26T11:23:49.568Z,92.07
2018-12-26T11:26:20.838Z,92.22
2018-12-26T11:28:51.848Z,92.23
2018-12-26T11:31:23.106Z,92.12
2018-12-26T11:33:54.302Z,91.64
2018-12-26T11:36:25.739Z,91.75
2018-12-26T11:38:57.041Z,92.02
2018-12-26T11:41:28.907Z,91.91
2018-12-26T11:44:00.041Z,91.60
2018-12-26T11:46:31.308Z,91.74
2018-12-26T11:49:02.597Z,91.64
2018-12-26T11:51:35.129Z,91.85
2018-12-26T11:54:06.294Z,91.61
2018-12-26T11:56:37.503Z,91.08
2018-12-26T11:59:08.744Z,90.81
2018-12-26T12:01:40.471Z,91.00
2018-12-26T12:04:11.569Z,91.01
2018-12-26T12:06:43.247Z,91.11
2018-12-26T12:09:16.041Z,90.87
2018-12-26T12:11:47.254Z,91.17
2018-12-26T12:14:18.364Z,90.96
2018-12-26T12:16:49.582Z,90.49
2018-12-26T12:19:20.780Z,90.75
2018-12-26T12:21:52.031Z,90.61
2018-12-26T12:24:24.818Z,89.70
2018-12-26T12:26:56.010Z,90.53
2018-12-26T12:29:35.766Z,90.77
2018-12-26T12:32:00.340Z,90.54
2018-12-26T12:34:31.526Z,90.31
2018-12-26T12:37:03.762Z,90.59
2018-12-26T12:39:35.769Z,90.70
2018-12-26T12:42:06.921Z,90.93
2018-12-26T12:44:38.161Z,91.05
2018-12-26T12:47:09.381Z,90.39
2018-12-26T12:49:40.597Z,89.86
2018-12-26T12:52:13.208Z,90.57
2018-12-26T12:54:47.763Z,89.94
2018-12-26T12:57:18.903Z,90.33
2018-12-26T12:59:50.087Z,90.09
2018-12-26T13:02:21.212Z,90.00
2018-12-26T13:04:52.564Z,90.04
2018-12-26T13:07:23.658Z,89.79
2018-12-26T13:09:54.830Z,89.79
2018-12-26T13:12:26.148Z,90.40
2018-12-26T13:14:57.332Z,90.11
2018-12-26T13:17:28.334Z,90.13
2018-12-26T13:20:00.590Z,90.25
2018-12-26T13:22:31.941Z,89.90
2018-12-26T13:25:02.936Z,90.20
2018-12-26T13:27:34.056Z,89.90
2018-12-26T13:30:07.039Z,89.67
2018-12-26T13:32:38.229Z,89.72
2018-12-26T13:35:09.235Z,89.59
2018-12-26T13:37:44.271Z,89.61
2018-12-26T13:40:16.737Z,89.48
2018-12-26T13:42:50.402Z,89.21
2018-12-26T13:45:21.792Z,89.49
2018-12-26T13:47:53.421Z,89.44
2018-12-26T13:50:24.495Z,89.84
2018-12-26T13:52:55.558Z,89.43
2018-12-26T13:55:26.651Z,89.83
2018-12-26T13:57:57.815Z,89.34
2018-12-26T14:00:28.980Z,89.43
2018-12-26T14:03:00.040Z,89.14
2018-12-26T14:05:34.539Z,89.41
2018-12-26T14:08:05.937Z,89.24
2018-12-26T14:10:37.640Z,89.40
2018-12-26T14:13:08.766Z,89.09
2018-12-26T14:15:39.949Z,88.82
2018-12-26T14:18:11.689Z,89.08
2018-12-26T14:20:42.843Z,89.29
2018-12-26T14:23:13.881Z,88.89
2018-12-26T14:25:46.809Z,88.84
2018-12-26T14:28:17.952Z,89.20
2018-12-26T14:30:49.618Z,89.17
2018-12-26T14:33:20.697Z,89.35
2018-12-26T14:35:59.210Z,88.96
2018-12-26T14:38:31.657Z,89.07
2018-12-26T14:41:02.767Z,89.14
2018-12-26T14:43:34.093Z,88.95
2018-12-26T14:46:05.809Z,89.04
2018-12-26T14:48:37.165Z,89.32
2018-12-26T14:51:08.258Z,89.43
2018-12-26T14:53:39.412Z,89.66
2018-12-26T14:56:10.412Z,89.76
2018-12-26T14:58:42.327Z,89.64
2018-12-26T15:01:13.327Z,89.83
2018-12-26T15:03:44.536Z,89.94
2018-12-26T15:06:17.119Z,89.61
2018-12-26T15:08:48.199Z,89.96
2018-12-26T15:11:19.342Z,90.00
2018-12-26T15:13:51.265Z,89.85
2018-12-26T15:16:23.302Z,89.92
2018-12-26T15:18:54.639Z,89.99
2018-12-26T15:21:25.776Z,90.05
2018-12-26T15:23:57.706Z,90.35
2018-12-26T15:26:29.087Z,90.45
2018-12-26T15:29:00.521Z,90.59
2018-12-26T15:31:31.514Z,90.33
2018-12-26T15:34:02.973Z,90.42
2018-12-26T15:36:36.701Z,90.48
2018-12-26T15:39:10.811Z,90.55
2018-12-26T15:41:42.050Z,90.59
2018-12-26T15:44:13.732Z,90.71
2018-12-26T15:46:45.160Z,90.85
2018-12-26T15:49:16.300Z,90.62
2018-12-26T15:51:47.468Z,90.68
2018-12-26T15:54:18.581Z,90.52
2018-12-26T15:56:50.186Z,90.65
2018-12-26T15:59:21.373Z,90.70
2018-12-26T16:01:52.618Z,90.69
2018-12-26T16:04:23.908Z,90.60
2018-12-26T16:06:54.915Z,90.52
2018-12-26T16:09:26.272Z,90.62
2018-12-26T16:11:57.384Z,90.61
2018-12-26T16:14:28.424Z,90.63
2018-12-26T16:17:00.225Z,90.94
2018-12-26T16:19:31.794Z,90.80
2018-12-26T16:22:03.264Z,91.13
2018-12-26T16:24:34.577Z,90.99
2018-12-26T16:27:06.536Z,91.10
2018-12-26T16:29:37.796Z,91.05
2018-12-26T16:32:09.008Z,91.07
2018-12-26T16:34:40.169Z,91.19
2018-12-26T16:37:11.363Z,90.93
2018-12-26T16:39:42.609Z,91.04
2018-12-26T16:42:16.872Z,91.07
2018-12-26T16:44:48.163Z,90.95
2018-12-26T16:47:19.690Z,90.97
2018-12-26T16:49:51.050Z,91.00
2018-12-26T16:52:22.686Z,90.91
2018-12-26T16:54:54.067Z,90.88
2018-12-26T16:57:25.254Z,90.72
2018-12-26T16:59:57.003Z,90.78
2018-12-26T17:02:28.113Z,90.74
2018-12-26T17:04:59.372Z,90.83
2018-12-26T17:07:30.571Z,90.77
2018-12-26T17:10:02.914Z,90.63
2018-12-26T17:12:34.360Z,90.61
2018-12-26T17:15:06.366Z,90.54
2018-12-26T17:17:38.169Z,90.55
2018-12-26T17:20:09.755Z,90.51
2018-12-26T17:22:40.927Z,90.42
2018-12-26T17:25:12.070Z,90.47
2018-12-26T17:27:43.189Z,90.53
2018-12-26T17:30:14.960Z,90.46
2018-12-26T17:32:45.931Z,90.65
2018-12-26T17:35:17.857Z,90.71
2018-12-26T17:37:49.969Z,90.75
2018-12-26T17:40:21.209Z,90.82
2018-12-26T17:42:55.367Z,90.75
2018-12-26T17:45:26.930Z,90.65
2018-12-26T17:47:57.903Z,90.60
2018-12-26T17:51:01.863Z,90.28
2018-12-26T17:53:46.294Z,90.33
2018-12-26T17:56:32.295Z,90.56
2018-12-26T17:59:31.079Z,90.92
2018-12-26T18:02:14.414Z,91.04
2018-12-26T18:04:45.762Z,90.78
2018-12-26T18:07:17.159Z,90.86
2018-12-26T18:09:48.149Z,90.75
2018-12-26T18:12:19.578Z,90.43
2018-12-26T18:14:50.782Z,90.49
2018-12-26T18:17:22.001Z,90.55
2018-12-26T18:19:53.137Z,90.44
2018-12-26T18:22:25.219Z,90.39
2018-12-26T18:24:56.323Z,90.41
2018-12-26T18:27:29.569Z,90.57
2018-12-26T18:30:00.946Z,90.60
2018-12-26T18:32:32.394Z,90.81
2018-12-26T18:35:03.473Z,91.02
2018-12-26T18:37:34.919Z,91.33
2018-12-26T18:40:07.449Z,91.21
2018-12-26T18:42:38.767Z,91.54
2018-12-26T18:45:10.305Z,91.41
2018-12-26T18:47:41.655Z,91.65
2018-12-26T18:50:12.713Z,91.60
2018-12-26T18:52:44.100Z,91.61
2018-12-26T18:55:15.325Z,91.52
2018-12-26T18:57:46.472Z,91.68
2018-12-26T19:00:17.665Z,91.79
2018-12-26T19:02:48.833Z,91.57
2018-12-26T19:05:20.104Z,91.36
2018-12-26T19:07:51.229Z,91.39
2018-12-26T19:10:22.224Z,91.39
2018-12-26T19:12:55.238Z,91.30
2018-12-26T19:15:28.144Z,91.44
2018-12-26T19:18:00.889Z,91.46
2018-12-26T19:20:33.083Z,91.41
2018-12-26T19:23:04.143Z,91.47
2018-12-26T19:25:36.689Z,91.49
2018-12-26T19:28:07.911Z,91.11
2018-12-26T19:30:40.443Z,91.49
2018-12-26T19:33:11.960Z,91.49
2018-12-26T19:35:43.180Z,91.57
2018-12-26T19:38:16.086Z,91.46
2018-12-26T19:40:49.847Z,91.41
2018-12-26T19:43:21.017Z,91.17
2018-12-26T19:45:52.753Z,91.12
2018-12-26T19:48:24.753Z,91.19
2018-12-26T19:50:55.816Z,91.30
2018-12-26T19:53:27.054Z,91.41
2018-12-26T19:55:58.152Z,91.63
2018-12-26T19:58:29.393Z,91.58
2018-12-26T20:01:00.457Z,91.39
2018-12-26T20:03:32.163Z,91.59
2018-12-26T20:06:03.266Z,91.69
2018-12-26T20:08:35.831Z,91.71
2018-12-26T20:11:10.527Z,91.74
2018-12-26T20:13:41.901Z,91.69
2018-12-26T20:16:12.880Z,91.68
2018-12-26T20:18:44.019Z,91.48
2018-12-26T20:21:15.257Z,91.61
2018-12-26T20:23:46.475Z,91.47
2018-12-26T20:26:17.669Z,91.51
2018-12-26T20:28:48.928Z,91.40
2018-12-26T20:31:20.048Z,91.19
2018-12-26T20:33:51.773Z,91.09
2018-12-26T20:36:23.326Z,91.07
2018-12-26T20:38:54.997Z,91.03
2018-12-26T20:41:26.187Z,91.08
2018-12-26T20:43:59.920Z,91.21
2018-12-26T20:46:31.236Z,91.22
2018-12-26T20:49:02.491Z,91.34
2018-12-26T20:51:34.634Z,91.27
2018-12-26T20:54:05.913Z,91.28
2018-12-26T20:56:37.647Z,91.31
2018-12-26T20:59:08.713Z,91.34
2018-12-26T21:01:40.023Z,91.28
2018-12-26T21:04:11.375Z,91.25
2018-12-26T21:06:43.501Z,91.22
2018-12-26T21:09:14.644Z,91.11
2018-12-26T21:11:46.016Z,91.08
2018-12-26T21:14:17.309Z,90.88
2018-12-26T21:16:54.909Z,90.89
2018-12-26T21:19:21.737Z,90.99
2018-12-26T21:21:52.847Z,90.88
2018-12-26T21:24:24.012Z,91.01
2018-12-26T21:26:55.398Z,90.88
2018-12-26T21:29:27.052Z,90.87
2018-12-26T21:31:58.290Z,90.79
2018-12-26T21:34:30.105Z,90.92
2018-12-26T21:37:01.604Z,90.78
2018-12-26T21:39:35.485Z,90.67
2018-12-26T21:42:06.682Z,90.54
2018-12-26T21:44:37.726Z,90.55
2018-12-26T21:47:08.870Z,90.58
2018-12-26T21:49:40.279Z,90.63
2018-12-26T21:52:11.381Z,90.66
2018-12-26T21:54:42.746Z,90.73
2018-12-26T21:57:14.391Z,90.81
2018-12-26T21:59:45.567Z,90.92
2018-12-26T22:02:22.421Z,90.88
2018-12-26T22:04:49.978Z,90.82
2018-12-26T22:07:21.611Z,91.13
2018-12-26T22:09:52.888Z,91.04
2018-12-26T22:12:24.168Z,91.00
2018-12-26T22:14:55.380Z,91.06
2018-12-26T22:17:26.391Z,91.21
2018-12-26T22:20:00.041Z,91.75
2018-12-26T22:22:31.456Z,91.73
2018-12-26T22:25:03.863Z,91.90
2018-12-26T22:27:35.087Z,91.94
2018-12-26T22:30:09.300Z,92.08
2018-12-26T22:32:39.935Z,92.30
2018-12-26T22:35:11.061Z,92.39
2018-12-26T22:37:42.504Z,92.52
2018-12-26T22:40:15.191Z,92.54
2018-12-26T22:42:46.447Z,92.73
2018-12-26T22:45:17.820Z,92.67
2018-12-26T22:47:49.529Z,92.59
2018-12-26T22:50:20.776Z,92.45
2018-12-26T22:52:51.852Z,92.55
2018-12-26T22:55:23.412Z,92.59
2018-12-26T22:57:54.733Z,92.49
2018-12-26T23:00:45.593Z,92.65
2018-12-26T23:03:17.081Z,92.67
2018-12-26T23:05:48.379Z,92.84
2018-12-26T23:08:19.899Z,93.01
2018-12-26T23:10:51.208Z,93.14
2018-12-26T23:13:23.197Z,93.14
2018-12-26T23:15:54.296Z,93.43
2018-12-26T23:18:25.952Z,93.56
2018-12-26T23:20:56.989Z,93.73
2018-12-26T23:23:28.293Z,93.92
2018-12-26T23:26:00.813Z,94.06
2018-12-26T23:28:33.984Z,94.22
2018-12-26T23:31:05.998Z,94.42
2018-12-26T23:33:37.212Z,94.55
2018-12-26T23:36:08.517Z,94.75
2018-12-26T23:38:39.810Z,94.71
2018-12-26T23:41:12.295Z,94.92
2018-12-26T23:43:44.108Z,95.06
2018-12-26T23:46:15.150Z,95.11
2018-12-26T23:48:46.260Z,95.18
2018-12-26T23:51:19.163Z,95.12
2018-12-26T23:53:50.338Z,95.15
2018-12-26T23:56:21.564Z,95.07
2018-12-26T23:58:52.821Z,95.15
